Terminal Aerodrome Forecast
Issued by NWS

Home | Current Version | Previous Version | Text Only | Print | Product List | Glossary On
Versions: 1 2 3 4 5 6 7 8 9 10 11 12 13 14
909
FTUS46 KSEW 210521
TAFOLM
TAF
KOLM 210521Z 2106/2206 VRB03KT P6SM SCT200
     FM211300 VRB03KT 6SM BR SCT004
      TEMPO 2114/2116 3SM BR BKN004
     FM211700 02006KT P6SM SKC
     FM220400 VRB03KT P6SM SKC=

USA.gov is the U.S. government's official web portal to all federal, state and local government web resources and services.